createdAt,value
2023-05-03T00:01:00.140Z,3.60
2023-05-03T00:03:29.214Z,3.50
2023-05-03T00:05:58.592Z,3.85
2023-05-03T00:08:29.405Z,2.90
2023-05-03T00:11:01.327Z,3.33
2023-05-03T00:13:30.137Z,3.30
2023-05-03T00:15:59.233Z,3.20
2023-05-03T00:18:28.097Z,2.95
2023-05-03T00:20:57.239Z,2.90
2023-05-03T00:23:26.888Z,3.13
2023-05-03T00:25:58.310Z,3.15
2023-05-03T00:28:27.512Z,3.22
2023-05-03T00:30:56.502Z,3.08
2023-05-03T00:33:25.288Z,3.03
2023-05-03T00:35:54.173Z,2.97
2023-05-03T00:38:22.983Z,3.58
2023-05-03T00:40:56.737Z,3.25
2023-05-03T00:43:25.679Z,3.42
2023-05-03T00:45:59.383Z,2.70
2023-05-03T00:48:37.488Z,3.25
2023-05-03T00:51:07.864Z,3.95
2023-05-03T00:53:36.925Z,3.70
2023-05-03T00:56:08.234Z,2.63
2023-05-03T00:58:40.312Z,3.45
2023-05-03T01:01:09.640Z,3.00
2023-05-03T01:03:42.023Z,3.10
2023-05-03T01:06:19.048Z,3.35
2023-05-03T01:08:56.041Z,4.32
2023-05-03T01:11:34.187Z,3.47
2023-05-03T01:14:10.291Z,2.95
2023-05-03T01:16:45.590Z,3.45
2023-05-03T01:19:26.995Z,2.83
2023-05-03T01:22:04.817Z,3.28
2023-05-03T01:24:38.714Z,3.58
2023-05-03T01:27:09.771Z,3.38
2023-05-03T01:29:38.650Z,3.85
2023-05-03T01:32:16.778Z,2.95
2023-05-03T01:34:52.457Z,3.45
2023-05-03T01:37:21.932Z,3.28
2023-05-03T01:39:57.070Z,3.40
2023-05-03T01:42:28.656Z,3.38
2023-05-03T01:44:58.098Z,3.13
2023-05-03T01:47:27.155Z,2.85
2023-05-03T01:49:55.937Z,3.20
2023-05-03T01:52:25.125Z,3.17
2023-05-03T01:54:54.116Z,3.53
2023-05-03T01:57:23.262Z,3.75
2023-05-03T01:59:53.668Z,3.33
2023-05-03T02:02:22.722Z,3.22
2023-05-03T02:04:51.607Z,2.78
2023-05-03T02:07:20.817Z,3.15
2023-05-03T02:09:50.128Z,3.17
2023-05-03T02:12:19.209Z,3.00
2023-05-03T02:14:49.188Z,2.80
2023-05-03T02:17:21.072Z,3.13
2023-05-03T02:19:50.037Z,2.92
2023-05-03T02:22:19.254Z,2.55
2023-05-03T02:24:49.742Z,2.95
2023-05-03T02:27:18.887Z,3.65
2023-05-03T02:29:47.806Z,3.00
2023-05-03T02:32:17.152Z,3.28
2023-05-03T02:34:50.769Z,3.05
2023-05-03T02:37:22.835Z,3.25
2023-05-03T02:39:51.954Z,2.60
2023-05-03T02:42:20.967Z,2.80
2023-05-03T02:44:51.148Z,3.40
2023-05-03T02:47:21.509Z,3.45
2023-05-03T02:49:52.368Z,3.08
2023-05-03T02:52:24.132Z,2.83
2023-05-03T02:54:53.363Z,3.30
2023-05-03T02:57:22.867Z,3.15
2023-05-03T02:59:52.067Z,2.88
2023-05-03T03:02:22.096Z,3.72
2023-05-03T03:04:53.358Z,3.47
2023-05-03T03:07:22.269Z,3.53
2023-05-03T03:09:56.828Z,3.35
2023-05-03T03:12:26.422Z,3.03
2023-05-03T03:14:56.529Z,2.88
2023-05-03T03:17:26.526Z,2.95
2023-05-03T03:19:58.325Z,3.67
2023-05-03T03:22:28.052Z,3.35
2023-05-03T03:24:57.062Z,3.72
2023-05-03T03:27:26.151Z,3.65
2023-05-03T03:29:55.204Z,3.10
2023-05-03T03:32:24.528Z,3.70
2023-05-03T03:34:56.199Z,4.07
2023-05-03T03:37:25.083Z,3.55
2023-05-03T03:39:55.902Z,3.40
2023-05-03T03:42:25.991Z,3.95
2023-05-03T03:44:55.173Z,3.97
2023-05-03T03:47:24.276Z,4.22
2023-05-03T03:49:53.383Z,3.90
2023-05-03T03:52:23.942Z,3.95
2023-05-03T03:54:52.748Z,3.58
2023-05-03T03:57:21.727Z,4.25
2023-05-03T03:59:50.585Z,3.88
2023-05-03T04:02:19.763Z,4.25
2023-05-03T04:04:48.850Z,4.07
2023-05-03T04:07:19.826Z,3.90
2023-05-03T04:09:50.467Z,4.28
2023-05-03T04:12:20.033Z,3.67
2023-05-03T04:14:48.956Z,4.35
2023-05-03T04:17:17.870Z,4.00
2023-05-03T04:19:47.264Z,4.07
2023-05-03T04:22:16.587Z,4.28
2023-05-03T04:24:46.015Z,4.32
2023-05-03T04:27:18.233Z,4.10
2023-05-03T04:29:49.125Z,4.28
2023-05-03T04:32:23.291Z,3.80
2023-05-03T04:34:55.167Z,3.70
2023-05-03T04:37:27.602Z,3.70
2023-05-03T04:39:56.504Z,4.18
2023-05-03T04:42:27.054Z,4.13
2023-05-03T04:44:56.110Z,3.65
2023-05-03T04:47:25.287Z,4.00
2023-05-03T04:49:54.962Z,4.10
2023-05-03T04:52:23.953Z,4.40
2023-05-03T04:54:53.143Z,4.25
2023-05-03T04:57:22.642Z,3.88
2023-05-03T04:59:54.082Z,4.10
2023-05-03T05:02:23.699Z,4.13
2023-05-03T05:04:52.568Z,4.05
2023-05-03T05:07:22.221Z,4.00
2023-05-03T05:09:51.418Z,4.82
2023-05-03T05:12:20.311Z,4.03
2023-05-03T05:14:49.586Z,4.63
2023-05-03T05:17:20.387Z,4.50
2023-05-03T05:19:49.809Z,4.22
2023-05-03T05:22:19.853Z,4.25
2023-05-03T05:24:55.248Z,5.68
2023-05-03T05:27:25.445Z,4.63
2023-05-03T05:29:56.193Z,4.35
2023-05-03T05:32:27.160Z,4.10
2023-05-03T05:34:56.570Z,4.70
2023-05-03T05:37:28.777Z,4.68
2023-05-03T05:40:01.843Z,4.55
2023-05-03T05:42:37.250Z,5.15
2023-05-03T05:45:08.327Z,5.00
2023-05-03T05:47:39.834Z,5.05
2023-05-03T05:50:17.657Z,5.00
2023-05-03T05:52:53.198Z,5.60
2023-05-03T05:55:23.541Z,7.30
2023-05-03T05:57:53.703Z,6.47
2023-05-03T06:00:26.824Z,5.10
2023-05-03T06:02:57.290Z,5.22
2023-05-03T06:05:26.875Z,6.07
2023-05-03T06:07:55.986Z,5.35
2023-05-03T06:10:25.194Z,5.15
2023-05-03T06:12:56.464Z,5.50
2023-05-03T06:15:27.860Z,5.20
2023-05-03T06:17:58.740Z,5.60
2023-05-03T06:20:27.659Z,5.40
2023-05-03T06:22:57.552Z,6.72
2023-05-03T06:25:26.797Z,5.55
2023-05-03T06:27:56.104Z,5.07
2023-05-03T06:30:28.739Z,6.38
2023-05-03T06:33:05.373Z,4.70
2023-05-03T06:35:37.537Z,5.75
2023-05-03T06:38:06.840Z,6.28
2023-05-03T06:40:38.349Z,5.63
2023-05-03T06:43:07.650Z,5.47
2023-05-03T06:45:41.048Z,6.72
2023-05-03T06:48:11.660Z,7.18
2023-05-03T06:50:41.235Z,6.32
2023-05-03T06:53:10.772Z,6.00
2023-05-03T06:55:39.774Z,6.80
2023-05-03T06:58:10.317Z,5.97
2023-05-03T07:00:40.149Z,6.45
2023-05-03T07:03:10.632Z,6.47
2023-05-03T07:05:39.731Z,6.55
2023-05-03T07:08:08.679Z,6.22
2023-05-03T07:10:37.713Z,6.53
2023-05-03T07:13:06.571Z,6.55
2023-05-03T07:15:36.468Z,6.55
2023-05-03T07:18:05.486Z,7.20
2023-05-03T07:20:36.894Z,6.30
2023-05-03T07:23:06.728Z,6.93
2023-05-03T07:25:35.967Z,7.25
2023-05-03T07:28:05.086Z,6.75
2023-05-03T07:30:33.815Z,6.55
2023-05-03T07:33:02.820Z,5.97
2023-05-03T07:35:33.145Z,7.15
2023-05-03T07:38:03.324Z,7.10
2023-05-03T07:40:33.514Z,7.50
2023-05-03T07:43:03.146Z,7.00
2023-05-03T07:45:32.116Z,7.25
2023-05-03T07:48:01.198Z,7.38
2023-05-03T07:50:30.631Z,7.13
2023-05-03T07:52:59.549Z,6.93
2023-05-03T07:55:31.455Z,7.35
2023-05-03T07:58:00.328Z,6.28
2023-05-03T08:00:29.316Z,7.35
2023-05-03T08:02:58.295Z,7.50
2023-05-03T08:05:27.596Z,7.78
2023-05-03T08:07:56.792Z,7.53
2023-05-03T08:10:25.619Z,7.28
2023-05-03T08:12:55.904Z,7.38
2023-05-03T08:15:24.843Z,7.57
2023-05-03T08:17:54.072Z,6.72
2023-05-03T08:20:27.516Z,7.80
2023-05-03T08:22:56.988Z,7.63
2023-05-03T08:25:26.236Z,7.05
2023-05-03T08:27:57.894Z,8.43
2023-05-03T08:30:27.194Z,7.35
2023-05-03T08:32:56.427Z,7.13
2023-05-03T08:35:25.925Z,7.78
2023-05-03T08:37:55.063Z,6.78
2023-05-03T08:40:24.092Z,8.18
2023-05-03T08:42:53.833Z,8.25
2023-05-03T08:45:25.340Z,9.27
2023-05-03T08:47:55.820Z,8.20
2023-05-03T08:50:27.341Z,7.50
2023-05-03T08:52:57.152Z,7.97
2023-05-03T08:55:26.400Z,8.02
2023-05-03T08:57:55.870Z,8.38
2023-05-03T09:00:30.780Z,7.97
2023-05-03T09:03:00.404Z,9.52
2023-05-03T09:05:34.232Z,8.00
2023-05-03T09:08:04.986Z,7.63
2023-05-03T09:10:34.422Z,7.72
2023-05-03T09:13:04.643Z,7.45
2023-05-03T09:15:36.281Z,7.15
2023-05-03T09:18:09.403Z,7.88
2023-05-03T09:20:39.685Z,7.72
2023-05-03T09:23:09.986Z,8.05
2023-05-03T09:25:43.422Z,7.60
2023-05-03T09:28:12.374Z,6.68
2023-05-03T09:30:43.597Z,6.50
2023-05-03T09:33:19.285Z,7.18
2023-05-03T09:35:59.766Z,7.15
2023-05-03T09:38:30.305Z,7.75
2023-05-03T09:40:59.508Z,7.95
2023-05-03T09:43:28.958Z,8.25
2023-05-03T09:46:11.415Z,8.38
2023-05-03T09:48:42.129Z,7.40
2023-05-03T09:51:13.342Z,6.90
2023-05-03T09:53:42.972Z,7.68
2023-05-03T09:56:14.511Z,8.02
2023-05-03T09:58:44.615Z,7.65
2023-05-03T10:01:17.340Z,7.07
2023-05-03T10:03:50.752Z,7.10
2023-05-03T10:06:26.855Z,7.30
2023-05-03T10:09:06.148Z,7.95
2023-05-03T10:11:37.653Z,6.63
2023-05-03T10:14:07.754Z,8.30
2023-05-03T10:16:42.004Z,7.03
2023-05-03T10:19:15.913Z,7.07
2023-05-03T10:21:56.850Z,8.77
2023-05-03T10:24:25.900Z,8.38
2023-05-03T10:26:57.671Z,7.40
2023-05-03T10:29:49.102Z,7.68
2023-05-03T10:32:36.945Z,8.10
2023-05-03T10:35:09.219Z,7.82
2023-05-03T10:40:12.051Z,7.90
2023-05-03T10:42:44.580Z,7.47
2023-05-03T10:45:25.443Z,8.07
2023-05-03T10:48:23.001Z,8.70
2023-05-03T10:50:53.250Z,9.15
2023-05-03T10:53:39.651Z,8.57
2023-05-03T10:56:10.155Z,9.00
2023-05-03T10:58:41.110Z,8.23
2023-05-03T11:01:12.389Z,8.45
2023-05-03T11:03:56.273Z,8.85
2023-05-03T11:06:33.952Z,7.97
2023-05-03T11:09:04.518Z,8.85
2023-05-03T11:11:33.921Z,8.05
2023-05-03T11:14:03.368Z,9.45
2023-05-03T11:16:32.507Z,8.65
2023-05-03T11:19:04.328Z,8.68
2023-05-03T11:21:34.275Z,10.65
2023-05-03T11:24:03.398Z,9.18
2023-05-03T11:26:37.532Z,8.68
2023-05-03T11:29:07.142Z,8.80
2023-05-03T11:31:36.738Z,8.68
2023-05-03T11:34:08.775Z,8.45
2023-05-03T11:36:37.904Z,8.75
2023-05-03T11:39:07.002Z,8.73
2023-05-03T11:41:36.337Z,8.45
2023-05-03T11:44:16.123Z,7.68
2023-05-03T11:46:48.499Z,8.15
2023-05-03T11:49:21.156Z,7.47
2023-05-03T11:51:53.679Z,8.45
2023-05-03T11:54:27.487Z,8.52
2023-05-03T11:56:59.741Z,8.45
2023-05-03T11:59:40.587Z,8.35
2023-05-03T12:02:13.514Z,9.75
2023-05-03T12:04:46.411Z,7.43
2023-05-03T12:07:18.581Z,7.97
2023-05-03T12:10:00.983Z,7.05
2023-05-03T12:12:42.547Z,7.32
2023-05-03T12:15:16.418Z,6.70
2023-05-03T12:17:48.958Z,7.60
2023-05-03T12:22:57.990Z,7.35
2023-05-03T12:25:33.042Z,7.28
2023-05-03T12:30:37.122Z,7.68
2023-05-03T12:33:10.401Z,6.75
2023-05-03T12:35:41.692Z,6.60
2023-05-03T12:38:11.016Z,7.03
2023-05-03T12:40:40.958Z,6.57
2023-05-03T12:43:10.439Z,6.82
2023-05-03T12:45:40.891Z,7.72
2023-05-03T12:48:10.490Z,7.30
2023-05-03T12:50:44.833Z,7.18
2023-05-03T12:53:16.976Z,8.90
2023-05-03T12:55:51.224Z,7.85
2023-05-03T13:03:31.965Z,8.73
2023-05-03T13:11:14.790Z,6.85
2023-05-03T13:13:43.706Z,7.07
2023-05-03T13:16:13.353Z,7.82
2023-05-03T13:18:45.547Z,7.40
2023-05-03T13:21:16.067Z,6.75
2023-05-03T13:23:46.183Z,7.75
2023-05-03T13:26:16.640Z,6.72
2023-05-03T13:28:45.941Z,6.72
2023-05-03T13:31:14.590Z,6.03
2023-05-03T13:33:43.719Z,6.53
2023-05-03T13:36:12.469Z,6.63
2023-05-03T13:38:43.003Z,7.43
2023-05-03T13:41:11.970Z,7.15
2023-05-03T13:43:42.171Z,6.45
2023-05-03T13:46:11.435Z,7.00
2023-05-03T13:48:40.494Z,7.68
2023-05-03T13:51:10.709Z,6.75
2023-05-03T13:53:40.002Z,6.93
2023-05-03T13:56:10.891Z,7.90
2023-05-03T13:58:40.698Z,7.40
2023-05-03T14:01:09.941Z,6.80
2023-05-03T14:03:38.779Z,6.78
2023-05-03T14:06:09.016Z,6.82
2023-05-03T14:08:37.988Z,7.18
2023-05-03T14:11:06.940Z,7.70
2023-05-03T14:13:53.899Z,6.40
2023-05-03T14:16:38.814Z,6.82
2023-05-03T14:19:11.860Z,7.45
2023-05-03T14:21:42.368Z,6.97
2023-05-03T14:24:11.607Z,7.25
2023-05-03T14:26:40.457Z,6.35
2023-05-03T14:29:11.206Z,5.65
2023-05-03T14:31:40.276Z,6.78
2023-05-03T14:34:09.297Z,5.85
2023-05-03T14:36:43.681Z,6.68
2023-05-03T14:39:14.507Z,5.93
2023-05-03T14:41:46.294Z,6.20
2023-05-03T14:44:16.775Z,6.63
2023-05-03T14:46:46.944Z,6.93
2023-05-03T14:49:17.555Z,6.50
2023-05-03T14:51:47.642Z,5.88
2023-05-03T14:54:16.524Z,6.25
2023-05-03T14:56:45.611Z,6.13
2023-05-03T14:59:14.636Z,6.72
2023-05-03T15:01:45.062Z,6.65
2023-05-03T15:04:14.024Z,6.55
2023-05-03T15:06:43.088Z,6.95
2023-05-03T15:09:13.134Z,7.65
2023-05-03T15:11:42.136Z,6.80
2023-05-03T15:14:11.629Z,6.90
2023-05-03T15:16:41.111Z,5.78
2023-05-03T15:19:11.201Z,6.72
2023-05-03T15:21:50.636Z,6.45
2023-05-03T15:24:19.950Z,7.30
2023-05-03T15:26:49.192Z,6.43
2023-05-03T15:29:18.156Z,6.85
2023-05-03T15:31:47.962Z,6.20
2023-05-03T15:34:18.212Z,7.63
2023-05-03T15:36:47.350Z,5.93
2023-05-03T15:39:16.314Z,6.30
2023-05-03T15:41:45.818Z,6.70
2023-05-03T15:44:15.147Z,5.85
2023-05-03T15:46:44.772Z,6.90
2023-05-03T15:49:13.999Z,6.25
2023-05-03T15:51:44.295Z,6.32
2023-05-03T15:54:13.065Z,6.35
2023-05-03T15:56:41.920Z,7.05
2023-05-03T15:59:14.964Z,6.88
2023-05-03T16:01:43.838Z,6.60
2023-05-03T16:04:12.681Z,6.10
2023-05-03T16:06:42.350Z,5.68
2023-05-03T16:09:13.005Z,6.78
2023-05-03T16:11:42.061Z,5.80
2023-05-03T16:14:10.965Z,6.45
2023-05-03T16:16:40.347Z,6.60
2023-05-03T16:19:09.428Z,6.00
2023-05-03T16:21:38.423Z,6.03
2023-05-03T16:24:07.685Z,6.82
2023-05-03T16:26:38.458Z,6.78
2023-05-03T16:29:07.551Z,5.72
2023-05-03T16:31:36.742Z,6.18
2023-05-03T16:34:05.577Z,5.97
2023-05-03T16:36:34.441Z,6.70
2023-05-03T16:39:03.357Z,6.32
2023-05-03T16:41:32.257Z,5.68
2023-05-03T16:44:04.995Z,6.47
2023-05-03T16:46:35.175Z,6.25
2023-05-03T16:49:04.372Z,7.22
2023-05-03T16:51:33.814Z,6.70
2023-05-03T16:54:04.552Z,7.00
2023-05-03T16:56:33.608Z,6.07
2023-05-03T16:59:04.274Z,6.75
2023-05-03T17:01:33.463Z,6.30
2023-05-03T17:04:06.564Z,6.75
2023-05-03T17:06:35.551Z,6.78
2023-05-03T17:09:04.732Z,7.57
2023-05-03T17:11:34.002Z,7.93
2023-05-03T17:14:04.260Z,6.60
2023-05-03T17:16:33.309Z,6.28
2023-05-03T17:19:02.545Z,8.73
2023-05-03T17:21:31.516Z,7.85
2023-05-03T17:24:00.459Z,6.88
2023-05-03T17:26:29.274Z,7.22
2023-05-03T17:28:58.164Z,7.95
2023-05-03T17:31:28.428Z,9.07
2023-05-03T17:33:57.488Z,9.27
2023-05-03T17:36:27.269Z,8.25
2023-05-03T17:38:56.587Z,9.65
2023-05-03T17:41:25.473Z,8.98
2023-05-03T17:43:54.344Z,6.82
2023-05-03T17:46:23.941Z,7.38
2023-05-03T17:48:54.886Z,6.68
2023-05-03T17:51:23.707Z,5.88
2023-05-03T17:53:52.768Z,5.95
2023-05-03T17:56:21.536Z,5.75
2023-05-03T17:58:50.400Z,7.45
2023-05-03T18:01:19.347Z,5.72
2023-05-03T18:03:50.924Z,6.75
2023-05-03T18:06:21.476Z,7.32
2023-05-03T18:08:50.414Z,8.43
2023-05-03T18:11:19.495Z,6.78
2023-05-03T18:13:50.366Z,6.38
2023-05-03T18:16:19.307Z,6.53
2023-05-03T18:18:48.232Z,6.13
2023-05-03T18:21:18.772Z,6.07
2023-05-03T18:23:49.179Z,7.63
2023-05-03T18:26:18.361Z,5.70
2023-05-03T18:28:47.188Z,7.63
2023-05-03T18:31:16.181Z,5.90
2023-05-03T18:33:45.081Z,5.90
2023-05-03T18:36:15.666Z,6.00
2023-05-03T18:38:46.825Z,6.85
2023-05-03T18:41:17.720Z,6.13
2023-05-03T18:43:48.064Z,5.35
2023-05-03T18:46:19.557Z,5.88
2023-05-03T18:48:49.245Z,5.68
2023-05-03T18:51:19.132Z,5.90
2023-05-03T18:53:50.041Z,5.82
2023-05-03T18:56:20.460Z,5.53
2023-05-03T18:58:49.293Z,6.00
2023-05-03T19:01:18.536Z,6.60
2023-05-03T19:03:47.510Z,6.18
2023-05-03T19:06:16.553Z,6.35
2023-05-03T19:08:47.001Z,5.75
2023-05-03T19:11:17.184Z,5.60
2023-05-03T19:13:49.408Z,7.03
2023-05-03T19:16:18.705Z,6.15
2023-05-03T19:18:50.824Z,5.78
2023-05-03T19:21:20.509Z,5.60
2023-05-03T19:23:51.547Z,5.50
2023-05-03T19:26:20.396Z,5.97
2023-05-03T19:28:50.780Z,5.07
2023-05-03T19:31:19.890Z,5.63
2023-05-03T19:33:48.929Z,5.15
2023-05-03T19:36:17.795Z,4.85
2023-05-03T19:38:46.712Z,5.32
2023-05-03T19:41:15.566Z,5.35
2023-05-03T19:43:44.534Z,5.32
2023-05-03T19:46:16.477Z,5.07
2023-05-03T19:48:45.587Z,5.43
2023-05-03T19:51:15.117Z,5.35
2023-05-03T19:53:45.109Z,4.70
2023-05-03T19:56:17.873Z,6.03
2023-05-03T19:58:46.819Z,5.40
2023-05-03T20:01:17.283Z,5.65
2023-05-03T20:03:46.844Z,4.75
2023-05-03T20:06:16.149Z,7.03
2023-05-03T20:08:45.066Z,7.47
2023-05-03T20:11:14.316Z,5.28
2023-05-03T20:13:43.182Z,5.40
2023-05-03T20:16:13.006Z,4.70
2023-05-03T20:18:43.726Z,5.30
2023-05-03T20:21:13.987Z,4.90
2023-05-03T20:23:43.014Z,5.78
2023-05-03T20:26:12.012Z,5.70
2023-05-03T20:28:40.797Z,6.50
2023-05-03T20:31:10.987Z,5.82
2023-05-03T20:33:39.893Z,5.72
2023-05-03T20:36:10.213Z,5.80
2023-05-03T20:38:39.220Z,5.60
2023-05-03T20:41:08.081Z,5.78
2023-05-03T20:43:37.122Z,6.10
2023-05-03T20:46:06.292Z,6.80
2023-05-03T20:48:35.223Z,6.25
2023-05-03T20:51:04.191Z,6.05
2023-05-03T20:53:34.637Z,6.30
2023-05-03T20:56:07.922Z,6.68
2023-05-03T20:58:36.982Z,13.45
2023-05-03T21:01:06.977Z,5.95
2023-05-03T21:03:36.411Z,6.25
2023-05-03T21:06:06.836Z,5.72
2023-05-03T21:08:37.596Z,6.25
2023-05-03T21:11:06.804Z,6.40
2023-05-03T21:13:36.189Z,6.30
2023-05-03T21:16:07.986Z,5.63
2023-05-03T21:18:37.741Z,5.78
2023-05-03T21:21:06.642Z,5.85
2023-05-03T21:23:36.841Z,6.45
2023-05-03T21:26:06.295Z,5.80
2023-05-03T21:28:35.122Z,5.82
2023-05-03T21:31:06.754Z,6.28
2023-05-03T21:33:35.731Z,6.75
2023-05-03T21:36:05.142Z,6.13
2023-05-03T21:38:34.079Z,5.68
2023-05-03T21:41:08.262Z,7.18
2023-05-03T21:43:40.286Z,5.45
2023-05-03T21:46:09.390Z,5.22
2023-05-03T21:48:38.282Z,6.00
2023-05-03T21:51:07.356Z,6.00
2023-05-03T21:53:36.213Z,5.40
2023-05-03T21:56:06.846Z,6.38
2023-05-03T21:58:36.124Z,5.60
2023-05-03T22:01:05.203Z,6.05
2023-05-03T22:03:34.208Z,5.72
2023-05-03T22:06:04.034Z,5.90
2023-05-03T22:08:32.909Z,5.45
2023-05-03T22:11:01.895Z,6.45
2023-05-03T22:13:32.394Z,5.80
2023-05-03T22:16:06.134Z,5.63
2023-05-03T22:18:35.814Z,5.95
2023-05-03T22:21:06.473Z,6.00
2023-05-03T22:23:36.593Z,5.40
2023-05-03T22:26:05.646Z,6.03
2023-05-03T22:28:36.753Z,5.45
2023-05-03T22:31:06.345Z,6.00
2023-05-03T22:33:35.682Z,5.93
2023-05-03T22:36:04.964Z,5.22
2023-05-03T22:38:34.050Z,6.15
2023-05-03T22:41:06.012Z,6.32
2023-05-03T22:43:36.526Z,5.88
2023-05-03T22:46:05.484Z,5.63
2023-05-03T22:48:34.257Z,6.28
2023-05-03T22:51:06.249Z,6.20
2023-05-03T22:53:35.317Z,5.68
2023-05-03T22:56:05.660Z,5.80
2023-05-03T22:58:36.232Z,6.07
2023-05-03T23:01:05.714Z,5.32
2023-05-03T23:03:36.481Z,6.00
2023-05-03T23:06:05.839Z,5.65
2023-05-03T23:08:34.750Z,5.82
2023-05-03T23:11:03.659Z,6.07
2023-05-03T23:13:32.754Z,6.03
2023-05-03T23:16:03.460Z,6.63
2023-05-03T23:18:35.404Z,6.40
2023-05-03T23:21:04.618Z,5.97
2023-05-03T23:23:33.691Z,5.82
2023-05-03T23:26:02.598Z,5.20
2023-05-03T23:28:32.252Z,6.13
2023-05-03T23:31:03.121Z,5.72
2023-05-03T23:33:32.691Z,5.75
2023-05-03T23:36:01.535Z,5.40
2023-05-03T23:38:33.466Z,5.55
2023-05-03T23:41:02.487Z,5.60
2023-05-03T23:43:31.617Z,5.55
2023-05-03T23:46:02.069Z,6.15
2023-05-03T23:48:31.646Z,5.65
2023-05-03T23:51:00.538Z,5.68
2023-05-03T23:53:29.348Z,5.72
2023-05-03T23:55:58.287Z,5.45
2023-05-03T23:58:27.103Z,5.40
